createdAt,value
2018-06-01T00:01:57.948Z,1.70
2018-06-01T00:06:59.233Z,1.60
2018-06-01T00:12:01.286Z,1.60
2018-06-01T00:17:02.623Z,1.77
2018-06-01T00:22:03.922Z,1.30
2018-06-01T00:27:05.229Z,1.40
2018-06-01T00:32:06.529Z,1.07
2018-06-01T00:37:07.849Z,1.17
2018-06-01T00:42:09.148Z,1.27
2018-06-01T00:47:10.467Z,1.30
2018-06-01T00:52:12.490Z,0.90
2018-06-01T00:57:13.783Z,1.00
2018-06-01T01:02:15.083Z,0.90
2018-06-01T01:07:17.109Z,1.00
2018-06-01T01:12:18.399Z,0.70
2018-06-01T01:17:19.694Z,0.80
2018-06-01T01:22:21.722Z,0.77
2018-06-01T01:27:23.006Z,0.70
2018-06-01T01:32:24.290Z,0.90
2018-06-01T01:37:30.261Z,1.40
2018-06-01T01:42:31.584Z,1.10
2018-06-01T01:47:32.916Z,0.97
2018-06-01T01:52:34.240Z,1.10
2018-06-01T01:57:35.518Z,1.00
2018-06-01T02:02:38.299Z,1.03
2018-06-01T02:07:39.599Z,1.20
2018-06-01T02:12:41.651Z,1.10
2018-06-01T02:17:42.947Z,1.27
2018-06-01T02:22:44.254Z,1.60
2018-06-01T02:27:45.548Z,1.43
2018-06-01T02:32:46.865Z,2.03
2018-06-01T02:37:48.164Z,1.97
2018-06-01T02:42:49.497Z,2.33
2018-06-01T02:47:50.792Z,2.60
2018-06-01T02:52:52.108Z,2.70
2018-06-01T02:57:53.419Z,3.00
2018-06-01T03:02:54.771Z,3.07
2018-06-01T03:07:56.101Z,3.13
2018-06-01T03:12:57.411Z,3.67
2018-06-01T03:17:58.711Z,3.30
2018-06-01T03:23:00.776Z,3.33
2018-06-01T03:28:02.826Z,3.80
2018-06-01T03:33:04.170Z,2.87
2018-06-01T03:38:05.461Z,3.07
2018-06-01T03:43:06.760Z,3.33
2018-06-01T03:48:08.803Z,3.00
2018-06-01T03:53:10.097Z,3.17
2018-06-01T03:58:11.427Z,3.07
2018-06-01T04:03:12.723Z,3.63
2018-06-01T04:08:14.041Z,3.27
2018-06-01T04:13:15.348Z,3.40
2018-06-01T04:18:16.635Z,3.60
2018-06-01T04:23:17.942Z,3.90
2018-06-01T04:28:19.248Z,3.60
2018-06-01T04:33:20.542Z,4.03
2018-06-01T04:38:21.836Z,3.53
2018-06-01T04:43:23.132Z,2.87
2018-06-01T04:48:24.426Z,3.87
2018-06-01T04:53:26.451Z,4.03
2018-06-01T04:58:27.747Z,4.00
2018-06-01T05:03:29.058Z,3.90
2018-06-01T05:08:30.370Z,3.57
2018-06-01T05:13:31.671Z,3.33
2018-06-01T05:18:32.977Z,3.37
2018-06-01T05:23:34.280Z,3.67
2018-06-01T05:28:36.343Z,3.10
2018-06-01T05:33:37.644Z,3.57
2018-06-01T05:38:38.936Z,3.43
2018-06-01T05:43:40.270Z,3.40
2018-06-01T05:48:41.582Z,3.50
2018-06-01T05:53:42.914Z,3.60
2018-06-01T05:58:44.227Z,3.83
2018-06-01T06:03:45.536Z,3.10
2018-06-01T06:08:46.871Z,3.47
2018-06-01T06:13:48.943Z,3.47
2018-06-01T06:18:50.251Z,3.60
2018-06-01T06:23:51.574Z,3.00
2018-06-01T06:28:52.871Z,3.50
2018-06-01T06:33:54.216Z,3.17
2018-06-01T06:38:56.273Z,5.37
2018-06-01T06:43:58.351Z,2.90
2018-06-01T06:48:59.655Z,3.33
2018-06-01T06:54:01.695Z,3.13
2018-06-01T06:59:02.987Z,3.30
2018-06-01T07:04:05.038Z,3.30
2018-06-01T07:09:06.376Z,3.50
2018-06-01T07:14:07.692Z,3.20
2018-06-01T07:19:09.746Z,3.43
2018-06-01T07:24:11.044Z,3.27
2018-06-01T07:29:13.104Z,3.43
2018-06-01T07:34:14.407Z,3.10
2018-06-01T07:39:16.456Z,2.80
2018-06-01T07:44:17.797Z,3.30
2018-06-01T07:49:19.095Z,3.07
2018-06-01T07:54:20.404Z,3.17
2018-06-01T07:59:21.750Z,3.27
2018-06-01T08:04:23.117Z,3.70
2018-06-01T08:09:24.441Z,2.60
2018-06-01T08:14:26.510Z,2.83
2018-06-01T08:19:27.816Z,3.10
2018-06-01T08:24:29.127Z,3.40
2018-06-01T08:29:30.429Z,3.07
2018-06-01T08:34:32.488Z,3.20
2018-06-01T08:39:33.827Z,3.25
2018-06-01T08:44:35.148Z,3.20
2018-06-01T08:49:37.200Z,3.53
2018-06-01T08:54:38.520Z,3.00
2018-06-01T08:59:39.811Z,2.87
2018-06-01T09:04:41.139Z,3.30
2018-06-01T09:09:42.450Z,2.93
2018-06-01T09:14:43.771Z,3.07
2018-06-01T09:19:45.125Z,2.77
2018-06-01T09:24:47.249Z,3.03
2018-06-01T09:29:48.583Z,2.87
2018-06-01T09:34:50.768Z,3.17
2018-06-01T09:39:52.080Z,2.80
2018-06-01T09:44:53.388Z,2.90
2018-06-01T09:49:54.712Z,2.60
2018-06-01T09:54:56.077Z,2.67
2018-06-01T09:59:57.427Z,2.77
2018-06-01T10:04:58.827Z,2.70
2018-06-01T10:10:06.272Z,2.90
2018-06-01T10:15:07.598Z,3.37
2018-06-01T10:20:08.897Z,2.80
2018-06-01T10:25:10.215Z,2.73
2018-06-01T10:30:12.288Z,2.70
2018-06-01T10:35:14.403Z,3.10
2018-06-01T10:40:16.458Z,2.43
2018-06-01T10:45:17.827Z,2.23
2018-06-01T10:50:19.087Z,2.60
2018-06-01T10:55:20.418Z,2.30
2018-06-01T11:00:21.704Z,2.30
2018-06-01T11:05:23.008Z,2.20
2018-06-01T11:10:25.046Z,2.47
2018-06-01T11:15:26.362Z,2.70
2018-06-01T11:20:28.403Z,2.40
2018-06-01T11:25:29.719Z,2.50
2018-06-01T11:30:31.067Z,2.33
2018-06-01T11:35:33.107Z,2.43
2018-06-01T11:40:34.433Z,2.50
2018-06-01T11:45:35.740Z,2.27
2018-06-01T11:50:37.067Z,2.67
2018-06-01T11:55:38.421Z,2.43
2018-06-01T12:00:39.748Z,2.30
2018-06-01T12:05:42.624Z,2.40
2018-06-01T12:10:43.942Z,2.50
2018-06-01T12:15:45.995Z,2.33
2018-06-01T12:20:47.308Z,2.40
2018-06-01T12:25:48.653Z,2.30
2018-06-01T12:30:50.699Z,2.23
2018-06-01T12:35:53.541Z,2.30
2018-06-01T12:40:55.595Z,2.03
2018-06-01T12:45:57.667Z,1.95
2018-06-01T12:50:58.961Z,2.13
2018-06-01T12:56:01.035Z,2.37
2018-06-01T13:01:02.334Z,2.00
2018-06-01T13:06:03.652Z,1.90
2018-06-01T13:11:04.991Z,2.33
2018-06-01T13:16:06.299Z,2.20
2018-06-01T13:21:08.347Z,2.10
2018-06-01T13:26:09.672Z,2.27
2018-06-01T13:31:10.982Z,2.00
2018-06-01T13:36:13.120Z,1.83
2018-06-01T13:41:14.432Z,1.77
2018-06-01T13:46:15.789Z,2.33
2018-06-01T13:51:17.088Z,1.80
2018-06-01T13:56:19.151Z,1.80
2018-06-01T14:01:20.488Z,1.60
2018-06-01T14:06:21.816Z,1.77
2018-06-01T14:11:23.146Z,2.15
2018-06-01T14:16:24.451Z,1.80
2018-06-01T14:21:25.756Z,1.80
2018-06-01T14:26:27.097Z,2.05
2018-06-01T14:31:28.404Z,1.80
2018-06-01T14:36:30.487Z,1.83
2018-06-01T14:41:31.857Z,2.60
2018-06-01T14:46:33.927Z,1.80
2018-06-01T14:51:35.250Z,2.00
2018-06-01T14:56:36.590Z,1.65
2018-06-01T15:01:37.911Z,1.80
2018-06-01T15:06:39.253Z,1.80
2018-06-01T15:11:41.129Z,1.67
2018-06-01T15:16:42.465Z,1.80
2018-06-01T15:21:43.797Z,1.77
2018-06-01T15:26:45.113Z,1.60
2018-06-01T15:31:46.423Z,1.62
2018-06-01T15:36:47.758Z,1.60
2018-06-01T15:41:49.085Z,1.80
2018-06-01T15:46:51.146Z,1.80
2018-06-01T15:51:52.479Z,1.80
2018-06-01T15:56:53.797Z,1.70
2018-06-01T16:01:55.849Z,1.73
2018-06-01T16:06:57.199Z,1.75
2018-06-01T16:11:58.516Z,1.60
2018-06-01T16:16:59.840Z,1.83
2018-06-01T16:22:01.420Z,2.10
2018-06-01T16:27:02.801Z,1.80
2018-06-01T16:32:04.860Z,2.03
2018-06-01T16:37:06.184Z,1.90
2018-06-01T16:42:07.499Z,2.27
2018-06-01T16:47:08.801Z,2.17
2018-06-01T16:52:10.092Z,2.13
2018-06-01T16:57:11.379Z,2.40
2018-06-01T17:02:12.717Z,3.23
2018-06-01T17:07:14.023Z,2.80
2018-06-01T17:12:15.331Z,2.97
2018-06-01T17:17:16.629Z,2.90
2018-06-01T17:22:17.928Z,2.80
2018-06-01T17:27:19.967Z,3.20
2018-06-01T17:32:21.268Z,3.40
2018-06-01T17:37:23.317Z,3.50
2018-06-01T17:42:24.673Z,2.90
2018-06-01T17:47:25.975Z,2.70
2018-06-01T17:52:28.060Z,2.27
2018-06-01T17:57:30.147Z,2.67
2018-06-01T18:02:32.212Z,2.50
2018-06-01T18:07:33.518Z,2.60
2018-06-01T18:12:34.853Z,2.50
2018-06-01T18:17:36.908Z,2.70
2018-06-01T18:22:38.308Z,3.10
2018-06-01T18:27:39.647Z,2.83
2018-06-01T18:32:40.958Z,2.90
2018-06-01T18:37:42.251Z,2.90
2018-06-01T18:42:43.562Z,3.00
2018-06-01T18:47:45.631Z,2.93
2018-06-01T18:52:46.910Z,4.07
2018-06-01T18:57:48.975Z,5.33
2018-06-01T19:02:50.300Z,5.07
2018-06-01T19:07:51.628Z,4.13
2018-06-01T19:12:52.955Z,3.60
2018-06-01T19:17:55.043Z,3.77
2018-06-01T19:22:56.375Z,4.27
2018-06-01T19:27:59.195Z,5.33
2018-06-01T19:33:00.516Z,4.40
2018-06-01T19:38:01.851Z,5.33
2018-06-01T19:43:03.928Z,4.70
2018-06-01T19:48:06.028Z,4.60
2018-06-01T19:53:07.373Z,5.57
2018-06-01T19:58:09.480Z,5.67
2018-06-01T20:03:11.563Z,5.00
2018-06-01T20:08:14.987Z,4.23
2018-06-01T20:13:17.363Z,4.50
2018-06-01T20:18:19.447Z,5.57
2018-06-01T20:23:21.518Z,5.80
2018-06-01T20:28:23.568Z,4.30
2018-06-01T20:33:24.945Z,4.97
2018-06-01T20:38:26.285Z,4.67
2018-06-01T20:43:27.606Z,4.87
2018-06-01T20:48:29.663Z,4.60
2018-06-01T20:53:31.746Z,4.73
2018-06-01T20:58:33.062Z,4.70
2018-06-01T21:03:34.353Z,4.83
2018-06-01T21:08:35.696Z,4.80
2018-06-01T21:13:37.041Z,4.80
2018-06-01T21:18:38.376Z,4.80
2018-06-01T21:23:39.706Z,4.70
2018-06-01T21:28:41.042Z,5.00
2018-06-01T21:33:42.360Z,5.20
2018-06-01T21:38:43.684Z,5.40
2018-06-01T21:43:44.990Z,4.80
2018-06-01T21:48:46.279Z,5.13
2018-06-01T21:53:48.349Z,5.10
2018-06-01T21:58:49.647Z,5.90
2018-06-01T22:03:50.953Z,5.10
2018-06-01T22:08:52.281Z,5.20
2018-06-01T22:13:53.601Z,5.63
2018-06-01T22:18:54.934Z,5.67
2018-06-01T22:23:56.575Z,5.90
2018-06-01T22:28:57.922Z,5.67
2018-06-01T22:33:59.969Z,5.80
2018-06-01T22:39:01.271Z,5.73
2018-06-01T22:44:02.613Z,5.50
2018-06-01T22:49:03.920Z,5.70
2018-06-01T22:54:05.212Z,5.20
2018-06-01T22:59:06.544Z,5.17
2018-06-01T23:04:07.868Z,5.37
2018-06-01T23:09:09.245Z,5.20
2018-06-01T23:14:10.830Z,5.00
2018-06-01T23:19:12.144Z,5.83
2018-06-01T23:24:13.460Z,5.60
2018-06-01T23:29:14.784Z,5.50
2018-06-01T23:34:17.575Z,4.77
2018-06-01T23:39:18.888Z,5.37
2018-06-01T23:44:20.923Z,5.37
2018-06-01T23:49:22.231Z,4.90
2018-06-01T23:54:24.275Z,4.27
2018-06-01T23:59:25.582Z,4.73
